Time;durP1;ratioP1;P1;durP2;ratioP2;P2;SDS_P1;SDS_P2;PMS_P1;PMS_P2;Temp;Humidity;BMP_temperature;BMP_pressure;BME280_temperature;BME280_humidity;BME280_pressure;Samples;Min_cycle;Max_cycle;Signal;HPM_P1;HPM_P2
2022/08/16 00:02:58;;;;;;;9.88;9.07;;;;;;;23.37;64.84;100417.72;5986515;29;20255;-71
2022/08/16 00:06:20;;;;;;;8.52;7.88;;;;;;;23.38;65.28;100422.16;5991804;29;20263;-69
2022/08/16 00:09:42;;;;;;;8.75;8.15;;;;;;;23.45;66.19;100411.91;5989285;29;20597;-69
2022/08/16 00:13:06;;;;;;;9.07;8.38;;;;;;;23.62;65.80;100418.44;5988049;29;20271;-70
2022/08/16 00:16:30;;;;;;;9.57;8.68;;;;;;;23.66;65.59;100413.31;5985593;29;20329;-70
2022/08/16 00:19:52;;;;;;;9.60;8.80;;;;;;;23.59;64.51;100416.16;5982971;29;20360;-70
2022/08/16 00:23:14;;;;;;;8.50;7.60;;;;;;;23.70;64.06;100425.53;5988022;29;20243;-69
2022/08/16 00:26:36;;;;;;;10.45;9.55;;;;;;;23.31;66.22;100415.00;5985753;29;20752;-69
2022/08/16 00:29:57;;;;;;;9.18;8.48;;;;;;;23.43;65.75;100416.78;5985821;29;20227;-69
2022/08/16 00:33:18;;;;;;;8.27;7.70;;;;;;;23.55;66.79;100425.94;5993142;29;20239;-70
2022/08/16 00:36:40;;;;;;;10.52;9.63;;;;;;;23.70;66.29;100425.53;5987879;29;20239;-70
2022/08/16 00:40:01;;;;;;;9.07;8.48;;;;;;;23.38;66.92;100429.56;5989878;29;20239;-70
2022/08/16 00:43:27;;;;;;;9.27;8.48;;;;;;;23.23;67.76;100434.56;5988914;29;20323;-70
2022/08/16 00:46:52;;;;;;;9.32;8.52;;;;;;;23.26;67.62;100442.38;5986200;29;20279;-70
2022/08/16 00:50:14;;;;;;;9.68;9.00;;;;;;;22.93;68.64;100445.47;5994935;29;20614;-70
2022/08/16 00:53:35;;;;;;;10.35;9.43;;;;;;;22.84;68.73;100450.41;5987642;29;20620;-70
2022/08/16 00:56:57;;;;;;;9.60;8.77;;;;;;;23.04;68.30;100455.72;5982314;29;20235;-70
2022/08/16 01:00:19;;;;;;;9.85;9.05;;;;;;;22.85;68.95;100454.88;5988740;29;20236;-69
2022/08/16 01:03:44;;;;;;;9.25;8.60;;;;;;;22.93;69.68;100457.31;5988147;29;20247;-70
2022/08/16 01:07:06;;;;;;;13.20;10.48;;;;;;;22.72;70.95;100459.63;5990138;29;20254;-70
2022/08/16 01:10:30;;;;;;;9.80;9.10;;;;;;;22.81;71.74;100458.28;6002625;29;20266;-70
2022/08/16 01:13:55;;;;;;;11.52;10.75;;;;;;;22.68;72.82;100461.16;5995722;29;21776;-71
2022/08/16 01:17:19;;;;;;;10.75;9.90;;;;;;;22.83;72.96;100459.75;5990613;29;20588;-70
2022/08/16 01:20:45;;;;;;;9.63;8.93;;;;;;;23.01;72.16;100458.91;6006840;29;20246;-70
2022/08/16 01:24:26;;;;;;;10.43;9.73;;;;;;;22.94;72.83;100458.16;6007681;29;20228;-70
2022/08/16 01:27:50;;;;;;;11.45;10.55;;;;;;;22.84;73.18;100461.41;5994280;29;20231;-71
2022/08/16 01:31:14;;;;;;;11.52;10.63;;;;;;;22.59;74.40;100462.50;5995775;29;20621;-69
2022/08/16 01:34:36;;;;;;;12.20;11.13;;;;;;;22.61;74.46;100463.94;5987895;29;20250;-69
2022/08/16 01:38:13;;;;;;;13.00;12.00;;;;;;;22.33;75.76;100466.28;5986812;29;20247;-70
2022/08/16 01:41:35;;;;;;;14.35;13.23;;;;;;;22.03;77.31;100466.03;5992262;29;20559;-69
2022/08/16 01:44:57;;;;;;;15.63;14.32;;;;;;;22.12;76.78;100469.38;6004110;29;20340;-70
2022/08/16 01:48:18;;;;;;;14.00;12.82;;;;;;;22.29;76.36;100462.28;5991806;29;20239;-70
2022/08/16 01:51:42;;;;;;;13.50;12.50;;;;;;;22.56;74.92;100468.41;6005455;29;20618;-70
2022/08/16 01:55:06;;;;;;;14.98;13.82;;;;;;;22.22;76.56;100486.19;6007247;29;20247;-70
2022/08/16 01:58:29;;;;;;;14.50;13.43;;;;;;;22.21;76.39;100488.13;5990945;29;20238;-70
2022/08/16 02:01:52;;;;;;;14.60;13.55;;;;;;;22.49;75.33;100484.94;5987504;29;20261;-70
2022/08/16 02:05:13;;;;;;;15.40;14.27;;;;;;;22.68;74.80;100474.88;6004086;29;20346;-70
2022/08/16 02:08:34;;;;;;;15.73;14.45;;;;;;;22.51;75.01;100479.25;5989907;29;20242;-71
2022/08/16 02:12:02;;;;;;;15.63;14.43;;;;;;;22.30;75.83;100477.69;5998386;29;20230;-70
2022/08/16 02:15:27;;;;;;;13.52;12.50;;;;;;;22.40;75.75;100474.47;6003020;29;20231;-71
2022/08/16 02:18:50;;;;;;;16.23;14.95;;;;;;;22.50;75.25;100485.78;6002790;29;20235;-71
2022/08/16 02:22:15;;;;;;;15.75;14.60;;;;;;;22.36;75.34;100487.81;5981648;29;20239;-70
2022/08/16 02:25:36;;;;;;;13.10;12.02;;;;;;;22.44;75.69;100490.28;5989390;29;20239;-70
2022/08/16 02:28:57;;;;;;;13.63;12.57;;;;;;;22.58;74.49;100483.66;5990218;29;20231;-70
2022/08/16 02:32:19;;;;;;;14.23;13.07;;;;;;;22.56;74.27;100488.50;5990806;29;20246;-70
2022/08/16 02:35:40;;;;;;;14.63;13.52;;;;;;;22.59;74.89;100484.50;6002300;29;20250;-69
2022/08/16 02:39:01;;;;;;;15.70;14.45;;;;;;;22.45;75.14;100488.34;6002208;29;20235;-70
2022/08/16 02:42:22;;;;;;;15.32;14.00;;;;;;;22.43;75.37;100487.75;6001082;29;20817;-70
2022/08/16 02:45:44;;;;;;;13.82;12.80;;;;;;;22.31;75.65;100487.63;6003385;29;20291;-70
2022/08/16 02:49:07;;;;;;;14.13;13.20;;;;;;;22.35;75.44;100483.38;5994144;29;20238;-70
2022/08/16 02:52:28;;;;;;;14.38;13.27;;;;;;;22.24;76.20;100490.41;5990915;29;20235;-70
2022/08/16 02:55:52;;;;;;;16.75;15.38;;;;;;;21.91;77.49;100472.44;6002738;29;20330;-70
2022/08/16 02:59:13;;;;;;;15.77;14.48;;;;;;;21.79;78.20;100476.91;6006123;29;20243;-70
2022/08/16 03:02:34;;;;;;;15.88;14.63;;;;;;;22.08;76.89;100471.72;5989473;29;20239;-69
2022/08/16 03:06:02;;;;;;;16.40;15.07;;;;;;;22.05;77.21;100483.13;5989065;29;21881;-70
2022/08/16 03:09:23;;;;;;;15.38;14.18;;;;;;;21.83;77.94;100479.03;5992088;29;20595;-70
2022/08/16 03:12:49;;;;;;;15.70;14.35;;;;;;;21.78;78.21;100484.31;6006635;29;20268;-71
2022/08/16 03:16:11;;;;;;;15.35;14.20;;;;;;;21.79;78.03;100486.00;6002350;29;20231;-71
2022/08/16 03:19:34;;;;;;;15.68;14.48;;;;;;;21.67;78.26;100482.25;6005100;29;20243;-70
2022/08/16 03:22:56;;;;;;;16.50;15.27;;;;;;;21.53;79.07;100472.38;6000390;29;20231;-70
2022/08/16 03:26:18;;;;;;;18.95;17.50;;;;;;;21.46;79.20;100477.88;5987521;29;20236;-69
2022/08/16 03:29:40;;;;;;;17.48;16.08;;;;;;;21.59;78.79;100467.94;5988192;29;20235;-70
2022/08/16 03:33:02;;;;;;;16.10;14.80;;;;;;;21.63;78.68;100469.19;6016827;29;20234;-70
2022/08/16 03:36:37;;;;;;;17.83;16.50;;;;;;;21.80;77.89;100475.88;6003231;29;20570;-70
2022/08/16 03:40:01;;;;;;;16.55;15.02;;;;;;;21.87;77.78;100473.94;6000465;29;20246;-70
2022/08/16 03:43:24;;;;;;;17.55;15.95;;;;;;;21.77;78.03;100476.28;5992476;29;20584;-70
2022/08/16 03:46:46;;;;;;;21.70;19.75;;;;;;;21.98;77.52;100468.63;5992745;29;20325;-70
2022/08/16 03:50:09;;;;;;;26.05;24.10;;;;;;;22.17;76.42;100464.88;6001927;29;20330;-70
2022/08/16 03:53:30;;;;;;;18.83;17.15;;;;;;;22.09;76.62;100480.81;5986109;29;20231;-70
2022/08/16 03:56:53;;;;;;;30.95;28.58;;;;;;;22.07;76.75;100478.25;6001990;29;20840;-71
2022/08/16 04:00:17;;;;;;;22.75;20.90;;;;;;;22.24;76.35;100471.19;5984508;29;20235;-70
2022/08/16 04:03:39;;;;;;;21.50;20.00;;;;;;;22.26;75.91;100474.56;5997700;29;20227;-70
2022/08/16 04:07:01;;;;;;;24.50;22.38;;;;;;;22.24;75.97;100487.66;5989904;29;20247;-70
2022/08/16 04:10:22;;;;;;;25.83;23.33;;;;;;;22.32;75.64;100488.47;6000111;29;20239;-70
2022/08/16 04:13:46;;;;;;;24.70;22.60;;;;;;;22.33;75.44;100488.25;5985361;29;20259;-70
2022/08/16 04:17:08;;;;;;;19.30;17.55;;;;;;;22.43;75.40;100494.09;6003396;29;20329;-71
2022/08/16 04:20:32;;;;;;;24.05;22.17;;;;;;;22.42;75.24;100497.06;5985798;29;20231;-71
2022/08/16 04:23:54;;;;;;;19.63;17.75;;;;;;;22.43;74.98;100498.72;5988328;29;20259;-71
2022/08/16 04:27:15;;;;;;;20.92;19.15;;;;;;;22.47;74.64;100488.97;5994898;29;20266;-71
2022/08/16 04:30:38;;;;;;;19.35;17.63;;;;;;;22.34;74.99;100491.84;5991083;29;20227;-69
2022/08/16 04:33:59;;;;;;;22.02;20.30;;;;;;;22.32;75.34;100494.78;5996225;29;20227;-71
2022/08/16 04:37:20;;;;;;;19.65;18.10;;;;;;;22.30;75.22;100501.59;5986337;29;20644;-71
2022/08/16 04:40:47;;;;;;;21.42;19.73;;;;;;;22.15;75.26;100502.72;6010322;29;20235;-70
2022/08/16 04:44:09;;;;;;;23.63;21.35;;;;;;;21.92;75.66;100507.09;5993666;29;20273;-72
2022/08/16 04:47:31;;;;;;;21.83;19.95;;;;;;;21.88;75.83;100512.16;6004263;29;20276;-70
2022/08/16 04:50:52;;;;;;;22.60;20.90;;;;;;;21.77;76.39;100509.22;6000754;29;20664;-71
2022/08/16 04:54:15;;;;;;;25.13;22.83;;;;;;;21.80;76.77;100512.38;5991438;29;20234;-70
2022/08/16 04:57:37;;;;;;;23.42;21.67;;;;;;;21.97;76.23;100510.84;6005322;29;20349;-70
2022/08/16 05:00:58;;;;;;;22.42;20.60;;;;;;;21.99;76.03;100516.97;6002747;29;20231;-70
2022/08/16 05:04:30;;;;;;;21.05;19.10;;;;;;;22.24;75.30;100528.00;5991586;29;20234;-71
2022/08/16 05:07:51;;;;;;;21.90;20.00;;;;;;;22.09;75.79;100530.25;6000663;29;20259;-70
2022/08/16 05:11:14;;;;;;;23.10;20.92;;;;;;;21.99;75.75;100529.84;6000494;29;20258;-71
2022/08/16 05:14:35;;;;;;;24.13;22.02;;;;;;;21.56;77.44;100534.22;5991279;29;20231;-70
2022/08/16 05:17:56;;;;;;;22.98;20.88;;;;;;;21.46;77.70;100531.94;5991109;29;20238;-70
2022/08/16 05:21:19;;;;;;;25.58;23.00;;;;;;;21.13;79.64;100544.88;5991854;29;20239;-70
2022/08/16 05:24:42;;;;;;;23.40;21.20;;;;;;;21.42;78.26;100538.91;5990978;29;20829;-69
2022/08/16 05:28:04;;;;;;;25.08;22.73;;;;;;;21.46;78.32;100545.66;5996677;29;20289;-69
2022/08/16 05:31:28;;;;;;;24.38;22.23;;;;;;;21.49;77.90;100542.47;6007680;29;20234;-69
2022/08/16 05:34:49;;;;;;;27.10;24.33;;;;;;;21.49;78.34;100545.19;6020938;29;20239;-70
2022/08/16 05:38:11;;;;;;;25.00;22.83;;;;;;;21.64;77.84;100555.91;6008040;29;20231;-71
2022/08/16 05:41:33;;;;;;;24.15;21.95;;;;;;;21.73;77.63;100557.38;5996827;29;20235;-70
2022/08/16 05:44:54;;;;;;;23.83;21.65;;;;;;;21.85;77.28;100564.75;5987148;29;20227;-70
2022/08/16 05:48:15;;;;;;;22.23;20.55;;;;;;;21.91;77.00;100563.03;6002876;29;20239;-69
2022/08/16 05:51:48;;;;;;;24.92;22.55;;;;;;;22.18;75.63;100579.19;5989511;29;20239;-69
2022/08/16 05:55:13;;;;;;;24.83;22.40;;;;;;;22.13;75.85;100578.97;6000594;29;20274;-69
2022/08/16 05:58:34;;;;;;;22.85;20.65;;;;;;;21.87;76.18;100591.97;5989353;29;20239;-69
2022/08/16 06:01:56;;;;;;;24.50;22.13;;;;;;;22.19;74.49;100585.53;5999306;29;20317;-72
2022/08/16 06:05:23;;;;;;;23.52;21.60;;;;;;;22.44;73.65;100602.09;5992857;29;20235;-72
2022/08/16 06:08:44;;;;;;;18.95;17.42;;;;;;;22.70;72.80;100594.56;5983057;29;20235;-71
2022/08/16 06:12:08;;;;;;;21.85;19.75;;;;;;;23.00;71.67;100589.25;6005757;29;20267;-69
2022/08/16 06:15:29;;;;;;;22.48;20.38;;;;;;;22.80;71.42;100594.91;5992730;29;20255;-71
2022/08/16 06:18:50;;;;;;;19.95;18.05;;;;;;;22.77;71.53;100592.59;5992513;29;20239;-71
2022/08/16 06:22:12;;;;;;;20.40;18.75;;;;;;;22.91;71.15;100587.84;6006558;29;20243;-69
2022/08/16 06:25:34;;;;;;;19.33;17.55;;;;;;;23.10;70.02;100594.25;6005266;29;20231;-70
2022/08/16 06:28:56;;;;;;;18.90;17.15;;;;;;;22.99;70.02;100598.56;5996297;29;20231;-71
2022/08/16 06:32:28;;;;;;;20.95;18.95;;;;;;;22.73;71.12;100599.63;6001294;29;20231;-71
2022/08/16 06:35:50;;;;;;;20.60;18.92;;;;;;;22.57;71.83;100610.25;6004571;29;20259;-70
2022/08/16 06:39:11;;;;;;;19.30;17.67;;;;;;;22.72;71.45;100616.31;5998008;29;20333;-71
2022/08/16 06:42:52;;;;;;;21.65;19.75;;;;;;;22.83;71.22;100612.84;5982380;29;20542;-69
2022/08/16 06:46:37;;;;;;;19.20;17.55;;;;;;;23.10;70.50;100605.25;5994422;29;20247;-70
2022/08/16 06:50:06;;;;;;;18.92;17.13;;;;;;;23.27;69.46;100609.13;5993978;29;20272;-71
2022/08/16 06:53:35;;;;;;;16.77;15.15;;;;;;;23.67;68.15;100613.22;5999789;29;20291;-71
2022/08/16 06:56:56;;;;;;;12.60;11.60;;;;;;;24.10;66.64;100614.03;5987533;29;20239;-69
2022/08/16 07:00:18;;;;;;;14.82;13.63;;;;;;;24.53;65.34;100609.19;6004562;29;20234;-71
2022/08/16 07:03:50;;;;;;;16.63;14.88;;;;;;;24.58;64.80;100614.88;6002042;29;20242;-68
2022/08/16 07:07:11;;;;;;;13.68;12.32;;;;;;;24.72;64.28;100612.75;6003680;29;20251;-69
2022/08/16 07:10:33;;;;;;;11.63;10.48;;;;;;;24.95;63.94;100612.03;5998491;29;20275;-71
2022/08/16 07:13:54;;;;;;;15.13;13.68;;;;;;;25.04;63.23;100616.94;6003886;29;20243;-70
2022/08/16 07:17:20;;;;;;;13.73;12.38;;;;;;;25.07;63.51;100615.66;5985833;29;20295;-69
2022/08/16 07:20:50;;;;;;;13.50;12.20;;;;;;;25.25;62.45;100610.03;6002771;29;20246;-69
2022/08/16 07:24:12;;;;;;;13.57;11.93;;;;;;;24.53;63.70;100608.38;5992838;29;20314;-71
2022/08/16 07:27:35;;;;;;;11.52;10.43;;;;;;;24.91;62.86;100617.16;5979977;29;20239;-71
2022/08/16 07:31:01;;;;;;;9.25;8.45;;;;;;;25.15;62.72;100618.06;5990453;29;20610;-70
2022/08/16 07:34:26;;;;;;;10.30;8.82;;;;;;;25.49;60.98;100621.97;5989148;29;20235;-69
2022/08/16 07:37:49;;;;;;;8.55;6.97;;;;;;;25.67;60.48;100633.72;5996668;29;20613;-68
2022/08/16 07:41:18;;;;;;;9.48;8.55;;;;;;;25.49;59.74;100631.09;6000516;29;20234;-69
2022/08/16 07:44:43;;;;;;;11.25;10.18;;;;;;;25.27;60.23;100635.47;6002851;29;20240;-69
2022/08/16 07:48:04;;;;;;;10.27;9.48;;;;;;;24.93;60.03;100639.81;5999029;29;20271;-69
2022/08/16 07:51:30;;;;;;;8.45;7.65;;;;;;;24.99;59.97;100636.13;5999254;29;20240;-69
2022/08/16 07:54:53;;;;;;;11.13;9.45;;;;;;;24.57;61.05;100634.41;6015147;29;20230;-69
2022/08/16 07:58:17;;;;;;;8.95;8.15;;;;;;;25.06;60.31;100636.03;6007510;29;20254;-68
2022/08/16 08:01:38;;;;;;;7.65;6.95;;;;;;;25.56;59.14;100645.59;5995573;29;20566;-69
2022/08/16 08:05:00;;;;;;;10.65;9.60;;;;;;;25.26;58.68;100639.31;6008908;29;20553;-69
2022/08/16 08:08:21;;;;;;;11.15;10.05;;;;;;;24.76;60.18;100643.50;5999703;29;20242;-70
2022/08/16 08:11:45;;;;;;;9.30;8.50;;;;;;;25.20;58.92;100643.03;6000926;29;20267;-72
2022/08/16 08:15:10;;;;;;;7.65;7.00;;;;;;;25.73;57.50;100643.81;5991368;29;20257;-69
2022/08/16 08:18:33;;;;;;;9.75;7.82;;;;;;;25.76;56.96;100640.59;5991420;29;20326;-72
2022/08/16 08:21:55;;;;;;;8.88;8.07;;;;;;;25.79;57.03;100658.56;6005764;29;20276;-70
2022/08/16 08:25:25;;;;;;;7.82;6.93;;;;;;;25.83;56.24;100654.25;6001564;29;20250;-70
2022/08/16 08:28:48;;;;;;;9.52;8.38;;;;;;;25.44;57.62;100663.25;5989916;29;20851;-71
2022/08/16 08:32:09;;;;;;;7.40;6.78;;;;;;;25.35;58.43;100671.84;5993659;29;20243;-70
2022/08/16 08:35:33;;;;;;;8.25;7.32;;;;;;;25.46;57.34;100677.66;5992206;29;20242;-69
2022/08/16 08:38:55;;;;;;;7.75;7.03;;;;;;;25.64;57.20;100670.09;5991279;29;20664;-69
2022/08/16 08:42:16;;;;;;;7.40;6.53;;;;;;;26.20;55.93;100688.03;5995945;29;20330;-71
2022/08/16 08:45:39;;;;;;;8.57;5.65;;;;;;;26.43;54.45;100676.91;5991442;29;20235;-69
2022/08/16 08:49:00;;;;;;;9.38;8.43;;;;;;;25.96;56.11;100676.97;6004231;29;20243;-69
2022/08/16 08:52:26;;;;;;;7.32;6.63;;;;;;;26.12;56.27;100678.16;5990543;29;20609;-71
2022/08/16 08:55:50;;;;;;;7.18;6.43;;;;;;;26.52;53.59;100681.81;5987520;29;20239;-69
2022/08/16 08:59:12;;;;;;;7.43;6.72;;;;;;;26.54;53.58;100689.84;6003522;29;20333;-70
2022/08/16 09:02:35;;;;;;;7.50;6.80;;;;;;;26.24;54.41;100684.53;6017462;29;20890;-70
2022/08/16 09:05:56;;;;;;;10.73;7.50;;;;;;;26.11;55.30;100684.78;6000297;29;20267;-70
2022/08/16 09:09:18;;;;;;;9.00;7.47;;;;;;;26.19;54.14;100691.84;5997266;29;20337;-72
2022/08/16 09:12:46;;;;;;;12.68;7.68;;;;;;;26.65;53.27;100688.97;5990014;29;20265;-70
2022/08/16 09:16:15;;;;;;;8.43;6.85;;;;;;;26.48;51.64;100688.91;5989882;29;20230;-69
2022/08/16 09:19:39;;;;;;;7.22;6.53;;;;;;;26.76;52.04;100686.19;5998602;29;20258;-71
2022/08/16 09:23:01;;;;;;;8.85;8.05;;;;;;;26.72;54.36;100692.50;5990082;29;20442;-72
2022/08/16 09:26:29;;;;;;;9.18;8.05;;;;;;;26.90;53.38;100690.38;6007436;29;20267;-71
2022/08/16 09:29:51;;;;;;;6.65;6.00;;;;;;;27.12;50.05;100689.66;6007355;29;20242;-70
2022/08/16 09:33:17;;;;;;;6.22;5.72;;;;;;;27.65;50.96;100690.06;5991345;29;20260;-71
2022/08/16 09:36:39;;;;;;;11.75;8.18;;;;;;;27.47;51.45;100696.69;5994197;29;20251;-71
2022/08/16 09:40:01;;;;;;;11.98;8.80;;;;;;;27.34;52.08;100694.25;5988321;29;20247;-71
2022/08/16 09:43:22;;;;;;;8.38;7.57;;;;;;;27.02;51.45;100704.13;5996860;29;20338;-70
2022/08/16 09:46:43;;;;;;;9.68;8.75;;;;;;;26.67;53.12;100706.19;5993941;29;20243;-68
2022/08/16 09:50:04;;;;;;;10.30;7.15;;;;;;;26.44;53.14;100703.47;5991318;29;20247;-72
2022/08/16 09:53:28;;;;;;;7.03;6.50;;;;;;;27.26;51.38;100702.94;5998069;29;20239;-69
2022/08/16 09:56:50;;;;;;;7.97;7.22;;;;;;;26.69;51.34;100706.78;5999484;29;20235;-71
2022/08/16 10:00:12;;;;;;;7.00;6.40;;;;;;;27.19;50.06;100720.78;5993851;29;20239;-75
2022/08/16 10:03:33;;;;;;;9.10;7.25;;;;;;;26.77;49.80;100709.19;5998475;29;20331;-74
2022/08/16 10:06:57;;;;;;;7.47;6.43;;;;;;;27.83;48.58;100716.69;5994196;29;20223;-70
2022/08/16 10:10:22;;;;;;;9.68;6.57;;;;;;;28.18;47.63;100715.28;5988882;29;20223;-70
2022/08/16 10:13:43;;;;;;;6.82;6.32;;;;;;;28.02;48.16;100702.31;5984072;29;20694;-69
2022/08/16 10:17:05;;;;;;;8.63;7.47;;;;;;;27.64;48.41;100710.56;5982797;29;21040;-72
2022/08/16 10:20:26;;;;;;;6.95;6.45;;;;;;;27.87;48.48;100707.59;5984207;29;21773;-73
2022/08/16 10:23:48;;;;;;;7.07;6.32;;;;;;;27.61;48.95;100708.28;5987463;29;20240;-71
2022/08/16 10:27:10;;;;;;;7.68;6.97;;;;;;;27.67;48.55;100707.28;5984473;29;20267;-73
2022/08/16 10:30:32;;;;;;;7.40;6.80;;;;;;;28.00;48.32;100701.72;5973611;29;20273;-71
2022/08/16 10:33:53;;;;;;;9.95;7.57;;;;;;;28.63;46.58;100703.16;5983376;29;20235;-73
2022/08/16 10:37:14;;;;;;;8.00;7.30;;;;;;;28.69;46.18;100704.91;5977293;29;20239;-72
2022/08/16 10:40:35;;;;;;;6.95;6.53;;;;;;;28.40;47.07;100707.00;5982313;29;20243;-71
2022/08/16 10:43:58;;;;;;;7.93;7.13;;;;;;;27.83;47.70;100709.19;5995507;29;20235;-70
2022/08/16 10:47:19;;;;;;;7.20;6.47;;;;;;;28.92;46.34;100691.59;5989369;29;20239;-71
2022/08/16 10:50:40;;;;;;;6.57;6.05;;;;;;;28.36;46.72;100715.03;5993476;29;20235;-70
2022/08/16 10:54:01;;;;;;;6.60;6.13;;;;;;;28.58;46.89;100712.28;5988873;29;20253;-71
2022/08/16 10:57:22;;;;;;;8.60;6.85;;;;;;;28.54;46.91;100713.84;5996383;29;20235;-71
2022/08/16 11:00:46;;;;;;;7.15;6.55;;;;;;;28.51;47.26;100708.84;5999410;29;20500;-72
2022/08/16 11:04:07;;;;;;;6.70;6.10;;;;;;;29.38;45.71;100704.03;5991798;29;20262;-72
2022/08/16 11:07:28;;;;;;;8.13;7.47;;;;;;;29.43;45.53;100709.66;5992371;29;20232;-72
2022/08/16 11:10:49;;;;;;;7.68;6.78;;;;;;;29.98;44.78;100712.91;5990603;29;20258;-71
2022/08/16 11:14:11;;;;;;;7.65;6.95;;;;;;;30.20;44.29;100723.06;5992578;29;20626;-72
2022/08/16 11:17:33;;;;;;;6.75;6.13;;;;;;;29.34;45.22;100715.94;5993915;29;22610;-73
2022/08/16 11:20:55;;;;;;;7.75;7.25;;;;;;;27.80;48.77;100733.81;5988183;29;20500;-71
2022/08/16 11:24:16;;;;;;;8.40;7.75;;;;;;;27.35;50.87;100731.09;5986645;29;20609;-71
2022/08/16 11:27:37;;;;;;;8.45;7.68;;;;;;;27.30;51.02;100729.03;5994500;29;20654;-71
2022/08/16 11:30:59;;;;;;;7.32;6.72;;;;;;;27.24;50.84;100738.34;5983093;29;20227;-72
2022/08/16 11:34:21;;;;;;;7.40;6.47;;;;;;;27.38;48.79;100733.34;6000401;29;20231;-73
2022/08/16 11:37:45;;;;;;;7.65;6.95;;;;;;;27.62;48.30;100726.56;5990338;29;20235;-72
2022/08/16 11:41:06;;;;;;;7.15;6.55;;;;;;;27.70;47.51;100728.94;5989562;29;20266;-70
2022/08/16 11:44:27;;;;;;;8.30;6.18;;;;;;;27.56;48.52;100731.19;5992493;29;20707;-71
2022/08/16 11:47:47;;;;;;;7.40;6.78;;;;;;;27.30;49.68;100739.28;5987993;29;20243;-72
2022/08/16 11:51:09;;;;;;;7.63;7.03;;;;;;;27.16;50.86;100735.16;5988373;29;20227;-70
2022/08/16 11:54:30;;;;;;;8.27;6.35;;;;;;;27.05;51.83;100747.09;5993955;29;20239;-71
2022/08/16 11:57:51;;;;;;;8.18;7.35;;;;;;;26.65;52.16;100744.31;5987149;29;20637;-69
2022/08/16 12:01:14;;;;;;;6.95;6.32;;;;;;;26.55;53.42;100750.47;5978848;29;20239;-71
2022/08/16 12:04:35;;;;;;;7.82;6.80;;;;;;;26.40;56.15;100763.97;5975664;29;20265;-71
2022/08/16 12:07:58;;;;;;;7.97;7.22;;;;;;;26.66;57.25;100759.84;5991895;29;20235;-70
2022/08/16 12:11:19;;;;;;;8.63;7.65;;;;;;;26.32;57.78;100755.19;5985489;29;20242;-70
2022/08/16 12:14:40;;;;;;;6.93;6.40;;;;;;;26.13;55.77;100776.59;5987670;29;20239;-71
2022/08/16 12:18:02;;;;;;;13.25;6.85;;;;;;;26.22;56.59;100766.03;5987777;29;20610;-72
2022/08/16 12:21:22;;;;;;;7.50;6.80;;;;;;;26.42;56.06;100763.72;5995801;29;21197;-79
2022/08/16 12:24:45;;;;;;;6.30;5.72;;;;;;;26.31;51.47;100762.63;5982438;29;20238;-83
2022/08/16 12:28:08;;;;;;;6.28;5.68;;;;;;;27.25;49.58;100766.84;5990348;29;20481;-78
2022/08/16 12:31:29;;;;;;;6.70;5.82;;;;;;;31.19;42.59;100760.00;5985130;29;20243;-77
2022/08/16 12:34:51;;;;;;;4.90;4.28;;;;;;;33.69;36.34;100773.81;5986022;29;20558;-71
2022/08/16 12:38:12;;;;;;;5.32;4.93;;;;;;;34.17;35.24;100761.66;5992959;29;20547;-75
2022/08/16 12:41:36;;;;;;;5.18;4.43;;;;;;;32.54;36.33;100766.81;5989713;29;20522;-73
2022/08/16 12:44:57;;;;;;;5.32;4.82;;;;;;;30.41;40.97;100764.69;5992156;29;20231;-73
2022/08/16 12:51:59;;;;;;;7.28;6.55;;;;;;;31.25;40.12;100758.94;5989988;29;20812;-69
2022/08/16 12:55:22;;;;;;;7.15;6.45;;;;;;;30.00;42.73;100749.63;5992236;29;20287;-72
2022/08/16 12:58:49;;;;;;;6.78;6.30;;;;;;;32.68;37.26;100760.34;5982342;29;20231;-71
2022/08/16 13:02:10;;;;;;;10.13;7.22;;;;;;;31.51;39.98;100755.97;5990265;29;20243;-73
2022/08/16 13:05:40;;;;;;;7.63;6.93;;;;;;;29.97;43.37;100760.44;5986870;29;20373;-72
2022/08/16 13:09:17;;;;;;;8.38;7.78;;;;;;;29.58;45.24;100758.97;5986344;29;20242;-71
2022/08/16 13:12:39;;;;;;;8.02;7.22;;;;;;;30.40;44.15;100749.09;5990301;29;20239;-73
2022/08/16 13:16:04;;;;;;;16.45;14.93;;;;;;;31.86;41.69;100751.50;5997601;29;20239;-75
2022/08/16 13:19:26;;;;;;;8.30;7.55;;;;;;;34.96;35.48;100746.22;5994947;29;20243;-73
2022/08/16 13:27:29;;;;;;;7.60;6.80;;;;;;;34.35;36.13;100751.69;5989780;29;20262;-73
2022/08/16 13:30:52;;;;;;;7.35;6.65;;;;;;;31.67;41.85;100759.56;5985157;29;20235;-73
2022/08/16 13:34:15;;;;;;;7.43;6.72;;;;;;;32.45;40.19;100757.31;5987658;29;20239;-74
2022/08/16 13:37:36;;;;;;;7.40;6.80;;;;;;;33.73;38.41;100753.34;5991541;29;20236;-72
2022/08/16 13:40:57;;;;;;;8.23;7.57;;;;;;;31.18;42.19;100758.34;5995251;29;20243;-72
2022/08/16 13:44:53;;;;;;;7.60;7.03;;;;;;;31.24;42.03;100758.09;5990292;29;20295;-73
2022/08/16 13:48:13;;;;;;;8.02;7.43;;;;;;;29.88;45.40;100753.69;5991244;29;20576;-72
2022/08/16 13:51:36;;;;;;;7.50;6.90;;;;;;;30.87;42.82;100753.81;5992499;29;21846;-71
2022/08/16 13:54:57;;;;;;;7.75;6.90;;;;;;;32.45;39.28;100748.94;5993359;29;20243;-73
2022/08/16 13:58:17;;;;;;;8.07;5.20;;;;;;;32.30;37.43;100750.66;5990722;29;22404;-71
2022/08/16 14:01:39;;;;;;;6.65;5.93;;;;;;;32.75;36.26;100754.47;5980634;29;20240;-73
2022/08/16 14:04:59;;;;;;;7.28;5.85;;;;;;;32.29;37.25;100757.34;5990219;29;20239;-73
2022/08/16 14:08:22;;;;;;;6.85;5.80;;;;;;;32.46;36.97;100757.03;5974743;29;20362;-71
2022/08/16 14:11:43;;;;;;;5.90;5.30;;;;;;;31.90;37.00;100752.59;5979072;29;20247;-72
2022/08/16 14:15:06;;;;;;;6.20;5.60;;;;;;;33.25;35.31;100750.59;5980283;29;20337;-73
2022/08/16 14:18:27;;;;;;;6.22;5.68;;;;;;;32.39;35.95;100756.50;5986454;29;20326;-73
2022/08/16 14:21:49;;;;;;;8.45;5.88;;;;;;;33.48;35.03;100738.69;5985513;29;20239;-74
2022/08/16 14:25:14;;;;;;;9.43;5.88;;;;;;;31.84;37.43;100754.56;5986863;29;20234;-73
2022/08/16 14:28:35;;;;;;;8.77;5.82;;;;;;;30.05;41.54;100761.88;5975525;29;21938;-71
2022/08/16 14:31:57;;;;;;;6.65;6.03;;;;;;;29.08;43.69;100760.06;5973088;29;20239;-74
2022/08/16 14:35:21;;;;;;;6.07;5.57;;;;;;;29.14;43.85;100747.91;5983277;29;20330;-73
2022/08/16 14:38:49;;;;;;;8.25;6.43;;;;;;;30.00;41.66;100746.84;5989309;29;20232;-72
2022/08/16 14:42:13;;;;;;;7.45;6.80;;;;;;;31.18;40.32;100739.69;5985556;29;20272;-73
2022/08/16 14:45:34;;;;;;;30.65;28.15;;;;;;;32.01;38.72;100745.94;5992047;29;20306;-73
2022/08/16 14:48:55;;;;;;;5.80;5.40;;;;;;;30.94;39.30;100737.69;5997631;29;20239;-71
2022/08/16 14:52:46;;;;;;;7.25;5.57;;;;;;;29.83;40.70;100745.34;5986313;29;20239;-71
2022/08/16 15:00:32;;;;;;;5.50;5.10;;;;;;;29.44;41.37;100746.59;5990585;29;20259;-69
2022/08/16 15:03:53;;;;;;;6.07;5.55;;;;;;;30.33;39.34;100742.91;5993436;29;20231;-71
2022/08/16 15:07:48;;;;;;;6.57;5.95;;;;;;;29.99;39.66;100747.13;5983888;29;20235;-70
2022/08/16 15:11:09;;;;;;;7.18;6.40;;;;;;;30.59;39.20;100741.09;5986493;29;20285;-71
2022/08/16 15:14:30;;;;;;;11.10;8.65;;;;;;;31.98;37.01;100749.31;5977704;29;20231;-71
2022/08/16 15:17:52;;;;;;;6.95;6.38;;;;;;;32.71;36.06;100737.41;5975059;29;20243;-71
2022/08/16 15:21:14;;;;;;;7.22;5.47;;;;;;;31.10;35.38;100743.03;5982217;29;20231;-71
2022/08/16 15:24:35;;;;;;;6.22;5.10;;;;;;;29.94;37.67;100736.78;6000749;29;20253;-72
2022/08/16 15:27:56;;;;;;;6.10;5.60;;;;;;;29.89;38.94;100744.25;5981313;29;20239;-71
2022/08/16 15:31:18;;;;;;;6.57;6.03;;;;;;;29.44;40.10;100739.09;5978022;29;20247;-72
2022/08/16 15:34:43;;;;;;;7.25;5.13;;;;;;;29.55;40.09;100749.22;5994135;29;21185;-72
2022/08/16 15:38:29;;;;;;;7.55;6.03;;;;;;;29.74;39.97;100746.91;5980862;29;21127;-73
2022/08/16 15:42:12;;;;;;;6.07;5.57;;;;;;;30.83;38.88;100742.34;5985615;29;20247;-72
2022/08/16 15:49:16;;;;;;;5.70;5.30;;;;;;;30.99;37.82;100749.66;5989133;29;20235;-70
2022/08/16 15:52:38;;;;;;;6.55;5.82;;;;;;;30.19;38.44;100755.59;5986791;29;20259;-72
2022/08/16 15:56:00;;;;;;;5.82;5.43;;;;;;;30.37;38.05;100749.63;5985848;29;20333;-71